This is the latest recevied weather packets stored in our database for station/object KF5VOI. If no packets are shown the sender has not sent any weather packets the latest 10 day(s).
| Time | Temp. | Humidity | Pressure | Rain* | Wind** | Luminosity | Snow |
|---|---|---|---|---|---|---|---|
| 1777526714 | 21.11° C | 99% | 1015.8 hPa | 0 mm | - | - | - |
| 1777524915 | 21.11° C | 99% | 1015.9 hPa | 0 mm | - | - | - |
| 1777523114 | 21.11° C | 99% | 1016.6 hPa | 0 mm | - | - | - |
| 1777521314 | 21.67° C | 97% | 1016.5 hPa | 0 mm | - | - | - |
| 1777519514 | 23.33° C | 88% | 1016 hPa | 0 mm | - | - | - |
| 1777517714 | 24.44° C | 87% | 1014.9 hPa | 0 mm | - | - | - |
| 1777514116 | 25.56° C | 90% | 1014.4 hPa | 0 mm | - | - | - |
| 1777512316 | 26.11° C | 88% | 1014.2 hPa | 0 mm | - | - | - |
| 1777511904 | 28.89° C | 79% | 1016.9 hPa | 0 mm | - | - | - |
| 1777511898 | 28.33° C | 82% | 1017 hPa | 0 mm | - | - | - |
| 1777505116 | 27.78° C | 81% | 1012.7 hPa | 0 mm | - | - | - |
| 1777503316 | 28.33° C | 79% | 1012.5 hPa | 0 mm | - | - | - |
| 1777501516 | 29.44° C | 75% | 1012.4 hPa | 0 mm | - | - | - |
| 1777499716 | 30° C | 73% | 1012.1 hPa | 0 mm | - | - | - |
| 1777497915 | 30.56° C | 72% | 1012.8 hPa | 0 mm | - | - | - |
| 1777496115 | 31.11° C | 69% | 1012.9 hPa | 0 mm | - | - | - |
| 1777492517 | 32.22° C | 69% | 1014.2 hPa | 0 mm | - | - | - |
| 1777490716 | 32.78° C | 66% | 1014.5 hPa | 0 mm | - | - | - |
| 1777488915 | 32.22° C | 68% | 1015.4 hPa | 0 mm | - | - | - |
| 1777479915 | 30° C | 74% | 1016.9 hPa | 0 mm | - | - | - |
| 1777476317 | 29.44° C | 76% | 1017.1 hPa | 0 mm | - | - | - |
| 1777474515 | 28.89° C | 79% | 1016.9 hPa | 0 mm | - | - | - |
| 1777470914 | 27.22° C | 88% | 1017 hPa | 0 mm | - | - | - |
| 1777469114 | 26.11° C | 93% | 1017.1 hPa | 0 mm | - | - | - |
| 1777467314 | 23.89° C | 99% | 1016.8 hPa | 0 mm | - | - | - |
* Rain latest hour (hover to see other rain measurements)
** Current wind speed in m/s (hover to see current wind gust speed)